ARBÚCIES





Hora UTC 06:00
Temperatura 5.0 ºC
Humitat 91.7 %
Pressió 1020.0 hPa
Pluja 0.0 mm
Velocitat vent 6.6 km/h
Direcció vent SSW
Radiació solar 0.0 W/m²

Dades diàries 2022-12-01



Hora UTC (hivern +1h; estiu +2h)
Temperatura (ºC) Humitat (%) Pressió (hPa) Velocitat vent (km/h) Precipitació (mm) Radiació solar (W/m²)
Hora UTC Aire Humitat Pressió Vel. Dir. Vel. Max Dir. Intent. màx 5 min. Rad. Sol.
00:05 4.2 93.3 1021.0 9.1 SW 13.8 SSW 0.0 0.0
00:10 4.2 93.3 1021.0 9.3 SSW 14.8 SSW 0.0 0.0
00:15 4.1 92.9 1021.0 6.7 SW 10.6 SW 0.0 0.0
00:20 3.7 92.6 1020.0 6.3 SW 9.2 SW 0.0 0.0
00:25 3.6 93.3 1021.0 7.3 SSW 9.5 SSW 0.0 0.0
00:30 3.4 93.3 1020.0 6.7 SSW 9.5 SW 0.0 0.0
00:35 3.3 93.8 1021.0 7.3 SW 9.5 SSW 0.0 0.0
00:40 3.1 93.8 1020.0 7.0 SW 9.2 SW 0.0 0.0
00:45 3.2 94.5 1020.0 7.6 SSW 10.6 SSW 0.0 0.0
00:50 3.5 94.8 1020.0 9.5 SSW 13.1 SSW 0.0 0.0
00:55 3.5 94.4 1020.0 9.7 SSW 14.5 SW 0.0 0.0
01:00 3.4 94.4 1020.0 8.4 SW 12.0 SSW 0.0 0.0
01:05 3.4 94.6 1021.0 9.3 SW 13.4 SW 0.0 0.0
01:10 3.5 94.5 1020.0 9.3 SSW 12.3 SW 0.0 0.0
01:15 3.3 94.2 1020.0 8.8 SW 15.2 SW 0.0 0.0
01:20 3.3 94.5 1020.0 9.6 SSW 13.4 SSW 0.0 0.0
01:25 3.3 94.3 1020.0 9.4 SW 13.1 SSW 0.0 0.0
01:30 2.9 94.1 1020.0 6.9 SW 9.5 SSW 0.0 0.0
01:35 2.6 94.3 1021.0 8.8 SSW 10.2 SSW 0.0 0.0
01:40 2.6 94.8 1020.0 9.0 SW 10.9 SW 0.0 0.0
01:45 2.7 95.2 1020.0 8.6 SSW 10.2 SW 0.0 0.0
01:50 2.5 95.0 1020.0 8.0 SSW 10.6 SSW 0.0 0.0
01:55 2.6 95.4 1020.0 7.4 SSW 9.5 SSW 0.0 0.0
02:00 2.7 95.5 1020.0 8.2 SSW 10.9 SW 0.0 0.0
02:05 2.6 95.3 1021.0 8.1 SSW 10.6 SSW 0.0 0.0
02:10 2.5 95.6 1020.0 8.2 SSW 11.3 SW 0.0 0.0
02:15 2.7 95.8 1020.0 8.5 SSW 11.3 SSW 0.0 0.0
02:20 2.7 95.7 1020.0 6.9 SW 11.6 SSW 0.0 0.0
02:25 2.8 95.8 1020.0 9.9 SSW 13.8 SW 0.0 0.0
02:30 2.9 95.7 1020.0 9.5 SSW 12.7 SSW 0.0 0.0
02:35 2.9 95.6 1021.0 9.9 SSW 12.7 SSW 0.0 0.0
02:40 2.8 95.4 1020.0 9.3 SSW 12.7 SSW 0.0 0.0
02:45 2.7 95.4 1020.0 8.6 SSW 10.9 SSW 0.0 0.0
02:50 2.6 95.5 1020.0 7.6 SSW 9.9 SSW 0.0 0.0
02:55 2.5 95.4 1020.0 8.2 SSW 10.6 SW 0.0 0.0
03:00 2.5 95.7 1020.0 8.0 SSW 10.2 SSW 0.0 0.0
03:05 2.3 95.5 1021.0 7.4 SSW 10.2 SSW 0.0 0.0
03:10 2.5 96.1 1020.0 7.8 SW 11.6 SSW 0.0 0.0
03:15 2.6 95.9 1020.0 7.0 SSW 11.3 SW 0.0 0.0
03:20 2.4 95.7 1020.0 7.7 SSW 10.6 SW 0.0 0.0
03:25 2.4 95.9 1020.0 8.1 SSW 11.3 SSW 0.0 0.0
03:30 2.4 96.0 1020.0 7.5 SSW 9.5 SSW 0.0 0.0
03:35 2.2 95.7 1021.0 7.9 SW 11.3 SW 0.0 0.0
03:40 2.3 96.2 1020.0 8.1 SSW 10.9 SW 0.0 0.0
03:45 2.3 96.2 1020.0 8.8 SW 13.8 SSW 0.0 0.0
03:50 2.7 96.6 1020.0 11.6 SW 17.6 SW 0.0 0.0
03:55 2.9 96.4 1020.0 9.4 SSW 13.1 SSW 0.0 0.0
04:00 2.9 96.0 1020.0 8.5 SSW 11.6 SW 0.0 0.0
04:05 3.0 96.0 1021.0 8.4 SSW 12.7 SSW 0.0 0.0
04:10 3.1 95.9 1020.0 9.2 SSW 13.4 SSW 0.0 0.0
04:15 3.2 95.9 1020.0 11.0 SSW 14.5 SSW 0.0 0.0
04:20 3.3 95.7 1020.0 10.1 SSW 15.9 SW 0.0 0.0
04:25 3.5 95.5 1020.0 10.1 SSW 16.9 SSW 0.0 0.0
04:30 3.7 95.1 1020.0 10.2 SW 14.5 SSW 0.0 0.0
04:35 3.8 94.7 1020.0 10.0 SW 13.8 SSW 0.0 0.0
04:40 3.9 94.3 1020.0 9.0 SW 13.4 WSW 0.0 0.0
04:45 3.9 94.1 1020.0 7.1 SW 11.3 SSW 0.0 0.0
04:50 3.9 94.1 1020.0 5.1 SW 8.5 SW 0.0 0.0
04:55 4.0 94.3 1020.0 6.2 SW 13.1 SW 0.0 0.0
05:00 4.2 94.1 1020.0 7.8 SW 11.6 SW 0.0 0.0
05:05 4.3 93.6 1021.0 7.0 SSW 11.6 SW 0.0 0.0
05:10 4.4 93.1 1020.0 8.7 SSW 12.3 SW 0.0 0.0
05:15 4.5 92.5 1020.0 9.2 SW 13.1 SW 0.0 0.0
05:20 4.6 91.9 1020.0 9.5 SSW 13.1 SW 0.0 0.0
05:25 4.7 91.6 1020.0 7.5 SSW 9.9 SW 0.0 0.0
05:30 4.7 91.6 1020.0 9.4 SSW 12.0 SSW 0.0 0.0
05:35 4.7 92.2 1020.0 8.9 SSW 11.3 SW 0.0 0.0
05:40 4.7 92.2 1020.0 6.4 SSW 9.2 SW 0.0 0.0
05:45 4.8 92.1 1020.0 5.0 SSW 7.8 SSW 0.0 0.0
05:50 4.9 92.1 1020.0 5.5 SSW 8.5 SSW 0.0 0.0
05:55 5.0 91.9 1020.0 7.0 SSW 10.6 SW 0.0 0.0
06:00 5.0 91.7 1020.0 6.6 SSW 9.5 SSW 0.0 0.0
Màxima 5.0 96.6 1021.0 11.6 SW 17.6 SW 0.0 0.0
Mínima 2.2 91.6 1020.0
Total 0.0